sensor_id;sensor_type;location;lat;lon;timestamp;P1;durP1;ratioP1;P2;durP2;ratioP2
21503;SDS011;10913;51.992;9.228;2023-04-07T00:00:28;15.23;;;11.70;;
21503;SDS011;10913;51.992;9.228;2023-04-07T00:02:54;17.35;;;11.95;;
21503;SDS011;10913;51.992;9.228;2023-04-07T00:05:20;16.92;;;11.75;;
21503;SDS011;10913;51.992;9.228;2023-04-07T00:07:45;16.58;;;12.38;;
21503;SDS011;10913;51.992;9.228;2023-04-07T00:10:11;15.70;;;12.27;;
21503;SDS011;10913;51.992;9.228;2023-04-07T00:12:36;15.48;;;11.57;;
21503;SDS011;10913;51.992;9.228;2023-04-07T00:15:01;15.38;;;11.32;;
21503;SDS011;10913;51.992;9.228;2023-04-07T00:17:27;13.15;;;10.48;;
21503;SDS011;10913;51.992;9.228;2023-04-07T00:19:52;14.52;;;10.77;;
21503;SDS011;10913;51.992;9.228;2023-04-07T00:22:18;14.15;;;11.10;;
21503;SDS011;10913;51.992;9.228;2023-04-07T00:24:43;14.25;;;11.50;;
21503;SDS011;10913;51.992;9.228;2023-04-07T00:27:08;18.33;;;12.13;;
21503;SDS011;10913;51.992;9.228;2023-04-07T00:29:34;14.73;;;10.75;;
21503;SDS011;10913;51.992;9.228;2023-04-07T00:31:59;11.77;;;10.20;;
21503;SDS011;10913;51.992;9.228;2023-04-07T00:34:25;10.98;;;9.13;;
21503;SDS011;10913;51.992;9.228;2023-04-07T00:36:50;10.93;;;9.23;;
21503;SDS011;10913;51.992;9.228;2023-04-07T00:39:19;12.07;;;9.10;;
21503;SDS011;10913;51.992;9.228;2023-04-07T00:41:45;10.70;;;9.15;;
21503;SDS011;10913;51.992;9.228;2023-04-07T00:44:11;10.68;;;8.35;;
21503;SDS011;10913;51.992;9.228;2023-04-07T00:46:38;10.73;;;8.82;;
21503;SDS011;10913;51.992;9.228;2023-04-07T00:49:04;11.02;;;8.65;;
21503;SDS011;10913;51.992;9.228;2023-04-07T00:51:30;12.20;;;8.93;;
21503;SDS011;10913;51.992;9.228;2023-04-07T00:53:55;10.90;;;8.43;;
21503;SDS011;10913;51.992;9.228;2023-04-07T00:56:21;10.23;;;8.23;;
21503;SDS011;10913;51.992;9.228;2023-04-07T00:58:46;11.95;;;9.48;;
21503;SDS011;10913;51.992;9.228;2023-04-07T01:01:14;11.20;;;8.57;;
21503;SDS011;10913;51.992;9.228;2023-04-07T01:03:45;11.75;;;8.93;;
21503;SDS011;10913;51.992;9.228;2023-04-07T01:06:16;10.60;;;9.15;;
21503;SDS011;10913;51.992;9.228;2023-04-07T01:08:53;11.82;;;8.90;;
21503;SDS011;10913;51.992;9.228;2023-04-07T01:14:28;11.13;;;9.20;;
21503;SDS011;10913;51.992;9.228;2023-04-07T01:16:58;12.15;;;9.15;;
21503;SDS011;10913;51.992;9.228;2023-04-07T01:19:37;10.68;;;9.15;;
21503;SDS011;10913;51.992;9.228;2023-04-07T01:22:11;11.32;;;9.05;;
21503;SDS011;10913;51.992;9.228;2023-04-07T01:30:04;12.63;;;9.93;;
21503;SDS011;10913;51.992;9.228;2023-04-07T01:32:35;12.57;;;9.73;;
21503;SDS011;10913;51.992;9.228;2023-04-07T01:35:03;12.38;;;10.38;;
21503;SDS011;10913;51.992;9.228;2023-04-07T01:37:34;10.95;;;9.45;;
21503;SDS011;10913;51.992;9.228;2023-04-07T01:40:01;13.13;;;10.05;;
21503;SDS011;10913;51.992;9.228;2023-04-07T01:42:28;12.18;;;9.45;;
21503;SDS011;10913;51.992;9.228;2023-04-07T01:44:55;10.82;;;9.23;;
21503;SDS011;10913;51.992;9.228;2023-04-07T01:47:22;12.35;;;10.27;;
21503;SDS011;10913;51.992;9.228;2023-04-07T01:49:51;12.38;;;9.98;;
21503;SDS011;10913;51.992;9.228;2023-04-07T01:52:18;11.70;;;9.38;;
21503;SDS011;10913;51.992;9.228;2023-04-07T01:54:44;11.77;;;9.43;;
21503;SDS011;10913;51.992;9.228;2023-04-07T01:57:10;16.67;;;10.18;;
21503;SDS011;10913;51.992;9.228;2023-04-07T01:59:35;13.75;;;10.35;;
21503;SDS011;10913;51.992;9.228;2023-04-07T02:02:01;12.70;;;9.95;;
21503;SDS011;10913;51.992;9.228;2023-04-07T02:07:02;12.40;;;10.00;;
21503;SDS011;10913;51.992;9.228;2023-04-07T02:09:39;13.65;;;10.45;;
21503;SDS011;10913;51.992;9.228;2023-04-07T02:12:08;12.00;;;9.85;;
21503;SDS011;10913;51.992;9.228;2023-04-07T02:14:36;13.43;;;10.57;;
21503;SDS011;10913;51.992;9.228;2023-04-07T02:17:02;14.90;;;10.45;;
21503;SDS011;10913;51.992;9.228;2023-04-07T02:19:29;13.30;;;10.50;;
21503;SDS011;10913;51.992;9.228;2023-04-07T02:21:55;13.90;;;10.98;;
21503;SDS011;10913;51.992;9.228;2023-04-07T02:24:21;12.32;;;10.50;;
21503;SDS011;10913;51.992;9.228;2023-04-07T02:26:46;14.23;;;11.13;;
21503;SDS011;10913;51.992;9.228;2023-04-07T02:29:12;13.60;;;10.95;;
21503;SDS011;10913;51.992;9.228;2023-04-07T02:31:38;14.55;;;11.40;;
21503;SDS011;10913;51.992;9.228;2023-04-07T02:34:03;14.45;;;11.00;;
21503;SDS011;10913;51.992;9.228;2023-04-07T02:36:28;14.48;;;10.63;;
21503;SDS011;10913;51.992;9.228;2023-04-07T02:38:55;14.55;;;10.85;;
21503;SDS011;10913;51.992;9.228;2023-04-07T02:41:20;13.70;;;11.00;;
21503;SDS011;10913;51.992;9.228;2023-04-07T02:43:46;12.27;;;10.18;;
21503;SDS011;10913;51.992;9.228;2023-04-07T02:46:11;13.75;;;10.93;;
21503;SDS011;10913;51.992;9.228;2023-04-07T02:48:37;15.07;;;11.25;;
21503;SDS011;10913;51.992;9.228;2023-04-07T02:51:02;13.75;;;11.32;;
21503;SDS011;10913;51.992;9.228;2023-04-07T02:53:28;15.02;;;11.23;;
21503;SDS011;10913;51.992;9.228;2023-04-07T02:55:53;14.60;;;11.57;;
21503;SDS011;10913;51.992;9.228;2023-04-07T02:58:19;15.80;;;11.32;;
21503;SDS011;10913;51.992;9.228;2023-04-07T03:00:45;15.27;;;11.77;;
21503;SDS011;10913;51.992;9.228;2023-04-07T03:03:12;15.00;;;11.50;;
21503;SDS011;10913;51.992;9.228;2023-04-07T03:05:37;13.63;;;10.73;;
21503;SDS011;10913;51.992;9.228;2023-04-07T03:08:03;14.73;;;11.63;;
21503;SDS011;10913;51.992;9.228;2023-04-07T03:10:28;14.75;;;11.38;;
21503;SDS011;10913;51.992;9.228;2023-04-07T03:12:54;14.82;;;10.85;;
21503;SDS011;10913;51.992;9.228;2023-04-07T03:15:19;15.80;;;12.02;;
21503;SDS011;10913;51.992;9.228;2023-04-07T03:17:45;13.25;;;10.57;;
21503;SDS011;10913;51.992;9.228;2023-04-07T03:20:10;15.82;;;11.98;;
21503;SDS011;10913;51.992;9.228;2023-04-07T03:22:36;14.23;;;11.18;;
21503;SDS011;10913;51.992;9.228;2023-04-07T03:25:01;13.80;;;10.85;;
21503;SDS011;10913;51.992;9.228;2023-04-07T03:27:27;14.43;;;11.35;;
21503;SDS011;10913;51.992;9.228;2023-04-07T03:29:52;16.23;;;11.27;;
21503;SDS011;10913;51.992;9.228;2023-04-07T03:32:17;13.95;;;10.73;;
21503;SDS011;10913;51.992;9.228;2023-04-07T03:34:43;14.32;;;10.45;;
21503;SDS011;10913;51.992;9.228;2023-04-07T03:37:08;14.10;;;10.32;;
21503;SDS011;10913;51.992;9.228;2023-04-07T03:39:33;13.20;;;9.00;;
21503;SDS011;10913;51.992;9.228;2023-04-07T03:42:01;13.35;;;10.20;;
21503;SDS011;10913;51.992;9.228;2023-04-07T03:44:27;13.32;;;10.32;;
21503;SDS011;10913;51.992;9.228;2023-04-07T03:46:52;14.10;;;11.55;;
21503;SDS011;10913;51.992;9.228;2023-04-07T03:49:17;14.35;;;11.48;;
21503;SDS011;10913;51.992;9.228;2023-04-07T03:51:43;12.00;;;10.23;;
21503;SDS011;10913;51.992;9.228;2023-04-07T03:54:08;13.98;;;10.43;;
21503;SDS011;10913;51.992;9.228;2023-04-07T03:56:34;12.57;;;10.27;;
21503;SDS011;10913;51.992;9.228;2023-04-07T03:58:59;14.18;;;10.88;;
21503;SDS011;10913;51.992;9.228;2023-04-07T04:01:25;13.75;;;11.23;;
21503;SDS011;10913;51.992;9.228;2023-04-07T04:03:50;12.60;;;10.05;;
21503;SDS011;10913;51.992;9.228;2023-04-07T04:06:16;13.45;;;10.32;;
21503;SDS011;10913;51.992;9.228;2023-04-07T04:08:41;14.43;;;10.57;;
21503;SDS011;10913;51.992;9.228;2023-04-07T04:11:07;15.20;;;10.90;;
21503;SDS011;10913;51.992;9.228;2023-04-07T04:13:32;14.07;;;10.98;;
21503;SDS011;10913;51.992;9.228;2023-04-07T04:15:57;12.05;;;10.20;;
21503;SDS011;10913;51.992;9.228;2023-04-07T04:18:23;13.30;;;10.02;;
21503;SDS011;10913;51.992;9.228;2023-04-07T04:20:48;13.85;;;10.32;;
21503;SDS011;10913;51.992;9.228;2023-04-07T04:23:14;13.38;;;9.70;;
21503;SDS011;10913;51.992;9.228;2023-04-07T04:25:40;14.45;;;10.73;;
21503;SDS011;10913;51.992;9.228;2023-04-07T04:28:05;13.55;;;10.68;;
21503;SDS011;10913;51.992;9.228;2023-04-07T04:30:31;13.35;;;10.52;;
21503;SDS011;10913;51.992;9.228;2023-04-07T04:32:56;13.98;;;11.05;;
21503;SDS011;10913;51.992;9.228;2023-04-07T04:35:22;15.63;;;11.25;;
21503;SDS011;10913;51.992;9.228;2023-04-07T04:37:48;12.63;;;10.98;;
21503;SDS011;10913;51.992;9.228;2023-04-07T04:40:13;13.27;;;10.63;;
21503;SDS011;10913;51.992;9.228;2023-04-07T04:42:39;12.63;;;10.32;;
21503;SDS011;10913;51.992;9.228;2023-04-07T04:45:05;13.43;;;10.65;;
21503;SDS011;10913;51.992;9.228;2023-04-07T04:47:31;13.20;;;10.50;;
21503;SDS011;10913;51.992;9.228;2023-04-07T04:49:59;12.70;;;10.02;;
21503;SDS011;10913;51.992;9.228;2023-04-07T04:52:25;13.88;;;10.18;;
21503;SDS011;10913;51.992;9.228;2023-04-07T04:54:51;13.07;;;10.32;;
21503;SDS011;10913;51.992;9.228;2023-04-07T04:57:16;12.75;;;9.45;;
21503;SDS011;10913;51.992;9.228;2023-04-07T04:59:42;11.88;;;9.13;;
21503;SDS011;10913;51.992;9.228;2023-04-07T05:02:07;11.13;;;9.82;;
21503;SDS011;10913;51.992;9.228;2023-04-07T05:04:33;12.45;;;9.60;;
21503;SDS011;10913;51.992;9.228;2023-04-07T05:09:31;12.30;;;9.30;;
21503;SDS011;10913;51.992;9.228;2023-04-07T05:11:57;13.02;;;9.88;;
21503;SDS011;10913;51.992;9.228;2023-04-07T05:14:22;12.70;;;10.02;;
21503;SDS011;10913;51.992;9.228;2023-04-07T05:16:47;10.63;;;9.48;;
21503;SDS011;10913;51.992;9.228;2023-04-07T05:19:13;12.18;;;9.25;;
21503;SDS011;10913;51.992;9.228;2023-04-07T05:21:39;12.73;;;9.35;;
21503;SDS011;10913;51.992;9.228;2023-04-07T05:24:04;12.05;;;8.98;;
21503;SDS011;10913;51.992;9.228;2023-04-07T05:26:30;13.45;;;9.85;;
21503;SDS011;10913;51.992;9.228;2023-04-07T05:28:55;13.23;;;10.02;;
21503;SDS011;10913;51.992;9.228;2023-04-07T05:31:21;11.57;;;9.57;;
21503;SDS011;10913;51.992;9.228;2023-04-07T05:33:46;12.07;;;9.50;;
21503;SDS011;10913;51.992;9.228;2023-04-07T05:36:11;10.68;;;9.10;;
21503;SDS011;10913;51.992;9.228;2023-04-07T05:38:37;10.70;;;9.30;;
21503;SDS011;10913;51.992;9.228;2023-04-07T05:41:02;12.70;;;10.13;;
21503;SDS011;10913;51.992;9.228;2023-04-07T05:43:27;10.82;;;9.00;;
21503;SDS011;10913;51.992;9.228;2023-04-07T05:45:53;10.73;;;9.05;;
21503;SDS011;10913;51.992;9.228;2023-04-07T05:48:18;11.13;;;8.90;;
21503;SDS011;10913;51.992;9.228;2023-04-07T05:50:43;10.57;;;8.68;;
21503;SDS011;10913;51.992;9.228;2023-04-07T05:53:09;11.60;;;9.30;;
21503;SDS011;10913;51.992;9.228;2023-04-07T05:55:34;10.60;;;9.23;;
21503;SDS011;10913;51.992;9.228;2023-04-07T05:58:00;11.65;;;8.95;;
21503;SDS011;10913;51.992;9.228;2023-04-07T06:00:26;10.52;;;9.00;;
21503;SDS011;10913;51.992;9.228;2023-04-07T06:02:51;11.82;;;10.00;;
21503;SDS011;10913;51.992;9.228;2023-04-07T06:05:16;11.43;;;9.32;;
21503;SDS011;10913;51.992;9.228;2023-04-07T06:07:42;12.68;;;9.30;;
21503;SDS011;10913;51.992;9.228;2023-04-07T06:10:07;14.00;;;10.20;;
21503;SDS011;10913;51.992;9.228;2023-04-07T06:12:33;13.57;;;10.43;;
21503;SDS011;10913;51.992;9.228;2023-04-07T06:14:58;14.77;;;11.73;;
21503;SDS011;10913;51.992;9.228;2023-04-07T06:17:23;16.55;;;12.23;;
21503;SDS011;10913;51.992;9.228;2023-04-07T06:19:49;15.73;;;12.55;;
21503;SDS011;10913;51.992;9.228;2023-04-07T06:22:14;16.33;;;12.30;;
21503;SDS011;10913;51.992;9.228;2023-04-07T06:24:40;16.70;;;12.68;;
21503;SDS011;10913;51.992;9.228;2023-04-07T06:27:05;15.18;;;12.50;;
21503;SDS011;10913;51.992;9.228;2023-04-07T06:29:31;16.02;;;12.55;;
21503;SDS011;10913;51.992;9.228;2023-04-07T06:31:57;14.05;;;11.13;;
21503;SDS011;10913;51.992;9.228;2023-04-07T06:34:23;15.05;;;10.80;;
21503;SDS011;10913;51.992;9.228;2023-04-07T06:36:48;15.18;;;11.40;;
21503;SDS011;10913;51.992;9.228;2023-04-07T06:39:13;15.07;;;11.63;;
21503;SDS011;10913;51.992;9.228;2023-04-07T06:41:39;13.40;;;10.80;;
21503;SDS011;10913;51.992;9.228;2023-04-07T06:44:07;14.45;;;11.32;;
21503;SDS011;10913;51.992;9.228;2023-04-07T06:46:33;12.70;;;11.10;;
21503;SDS011;10913;51.992;9.228;2023-04-07T06:48:58;13.75;;;11.30;;
21503;SDS011;10913;51.992;9.228;2023-04-07T06:51:24;12.15;;;10.77;;
21503;SDS011;10913;51.992;9.228;2023-04-07T06:53:50;12.80;;;10.82;;
21503;SDS011;10913;51.992;9.228;2023-04-07T06:56:15;11.90;;;10.15;;
21503;SDS011;10913;51.992;9.228;2023-04-07T06:58:41;12.95;;;10.20;;
21503;SDS011;10913;51.992;9.228;2023-04-07T07:01:06;13.10;;;10.27;;
21503;SDS011;10913;51.992;9.228;2023-04-07T07:03:32;13.35;;;10.07;;
21503;SDS011;10913;51.992;9.228;2023-04-07T07:05:58;11.43;;;8.80;;
21503;SDS011;10913;51.992;9.228;2023-04-07T07:08:26;11.13;;;8.50;;
21503;SDS011;10913;51.992;9.228;2023-04-07T07:10:53;10.27;;;8.55;;
21503;SDS011;10913;51.992;9.228;2023-04-07T07:13:20;10.10;;;8.70;;
21503;SDS011;10913;51.992;9.228;2023-04-07T07:15:48;9.23;;;7.78;;
21503;SDS011;10913;51.992;9.228;2023-04-07T07:18:14;8.90;;;8.00;;
21503;SDS011;10913;51.992;9.228;2023-04-07T07:20:39;8.07;;;7.20;;
21503;SDS011;10913;51.992;9.228;2023-04-07T07:23:05;7.88;;;6.90;;
21503;SDS011;10913;51.992;9.228;2023-04-07T07:25:30;8.48;;;7.45;;
21503;SDS011;10913;51.992;9.228;2023-04-07T07:27:56;8.00;;;7.13;;
21503;SDS011;10913;51.992;9.228;2023-04-07T07:30:21;7.55;;;6.85;;
21503;SDS011;10913;51.992;9.228;2023-04-07T07:32:48;8.43;;;7.53;;
21503;SDS011;10913;51.992;9.228;2023-04-07T07:35:14;9.05;;;7.47;;
21503;SDS011;10913;51.992;9.228;2023-04-07T07:37:40;7.85;;;7.15;;
21503;SDS011;10913;51.992;9.228;2023-04-07T07:40:05;7.63;;;6.93;;
21503;SDS011;10913;51.992;9.228;2023-04-07T07:42:31;7.47;;;6.78;;
21503;SDS011;10913;51.992;9.228;2023-04-07T07:44:57;7.25;;;6.53;;
21503;SDS011;10913;51.992;9.228;2023-04-07T07:47:23;8.40;;;7.03;;
21503;SDS011;10913;51.992;9.228;2023-04-07T07:49:49;8.18;;;7.38;;
21503;SDS011;10913;51.992;9.228;2023-04-07T07:52:15;8.15;;;7.20;;
21503;SDS011;10913;51.992;9.228;2023-04-07T07:54:40;8.13;;;7.32;;
21503;SDS011;10913;51.992;9.228;2023-04-07T07:57:05;8.00;;;7.20;;
21503;SDS011;10913;51.992;9.228;2023-04-07T07:59:32;7.68;;;7.00;;
21503;SDS011;10913;51.992;9.228;2023-04-07T08:01:58;9.45;;;7.35;;
21503;SDS011;10913;51.992;9.228;2023-04-07T08:04:23;8.68;;;7.65;;
21503;SDS011;10913;51.992;9.228;2023-04-07T08:06:49;8.57;;;7.78;;
21503;SDS011;10913;51.992;9.228;2023-04-07T08:09:15;8.48;;;7.45;;
21503;SDS011;10913;51.992;9.228;2023-04-07T08:11:41;10.52;;;7.90;;
21503;SDS011;10913;51.992;9.228;2023-04-07T08:14:06;8.18;;;7.30;;
21503;SDS011;10913;51.992;9.228;2023-04-07T08:16:32;8.60;;;7.15;;
21503;SDS011;10913;51.992;9.228;2023-04-07T08:18:57;10.18;;;7.82;;
21503;SDS011;10913;51.992;9.228;2023-04-07T08:21:23;10.25;;;7.82;;
21503;SDS011;10913;51.992;9.228;2023-04-07T08:23:48;8.55;;;7.75;;
21503;SDS011;10913;51.992;9.228;2023-04-07T08:26:13;9.02;;;7.65;;
21503;SDS011;10913;51.992;9.228;2023-04-07T08:28:39;9.63;;;8.02;;
21503;SDS011;10913;51.992;9.228;2023-04-07T08:31:04;9.13;;;7.70;;
21503;SDS011;10913;51.992;9.228;2023-04-07T08:33:31;8.07;;;6.80;;
21503;SDS011;10913;51.992;9.228;2023-04-07T08:35:56;9.27;;;7.63;;
21503;SDS011;10913;51.992;9.228;2023-04-07T08:38:22;9.30;;;8.30;;
21503;SDS011;10913;51.992;9.228;2023-04-07T08:40:48;9.10;;;8.20;;
21503;SDS011;10913;51.992;9.228;2023-04-07T08:43:19;10.95;;;8.43;;
21503;SDS011;10913;51.992;9.228;2023-04-07T08:45:45;10.10;;;9.02;;
21503;SDS011;10913;51.992;9.228;2023-04-07T08:48:17;10.05;;;9.05;;
21503;SDS011;10913;51.992;9.228;2023-04-07T08:50:48;10.00;;;8.98;;
21503;SDS011;10913;51.992;9.228;2023-04-07T08:53:17;10.13;;;8.90;;
21503;SDS011;10913;51.992;9.228;2023-04-07T08:55:47;9.75;;;8.80;;
21503;SDS011;10913;51.992;9.228;2023-04-07T08:58:12;11.25;;;9.30;;
21503;SDS011;10913;51.992;9.228;2023-04-07T09:00:41;9.65;;;8.75;;
21503;SDS011;10913;51.992;9.228;2023-04-07T09:03:09;8.57;;;7.72;;
21503;SDS011;10913;51.992;9.228;2023-04-07T09:05:35;10.60;;;9.50;;
21503;SDS011;10913;51.992;9.228;2023-04-07T09:08:01;9.38;;;8.48;;
21503;SDS011;10913;51.992;9.228;2023-04-07T09:10:27;11.18;;;8.77;;
21503;SDS011;10913;51.992;9.228;2023-04-07T09:12:53;10.73;;;9.60;;
21503;SDS011;10913;51.992;9.228;2023-04-07T09:15:18;11.00;;;9.90;;
21503;SDS011;10913;51.992;9.228;2023-04-07T09:17:45;9.43;;;8.30;;
21503;SDS011;10913;51.992;9.228;2023-04-07T09:20:10;9.73;;;8.73;;
21503;SDS011;10913;51.992;9.228;2023-04-07T09:22:37;11.52;;;9.40;;
21503;SDS011;10913;51.992;9.228;2023-04-07T09:25:17;9.75;;;8.85;;
21503;SDS011;10913;51.992;9.228;2023-04-07T09:27:57;10.07;;;9.07;;
21503;SDS011;10913;51.992;9.228;2023-04-07T09:30:23;12.73;;;9.68;;
21503;SDS011;10913;51.992;9.228;2023-04-07T09:32:49;9.90;;;8.90;;
21503;SDS011;10913;51.992;9.228;2023-04-07T09:35:15;9.88;;;8.88;;
21503;SDS011;10913;51.992;9.228;2023-04-07T09:37:40;10.23;;;8.75;;
21503;SDS011;10913;51.992;9.228;2023-04-07T09:40:06;11.73;;;9.85;;
21503;SDS011;10913;51.992;9.228;2023-04-07T09:42:32;10.15;;;9.15;;
21503;SDS011;10913;51.992;9.228;2023-04-07T09:45:01;11.77;;;10.27;;
21503;SDS011;10913;51.992;9.228;2023-04-07T09:47:27;11.10;;;9.85;;
21503;SDS011;10913;51.992;9.228;2023-04-07T09:49:54;11.90;;;10.45;;
21503;SDS011;10913;51.992;9.228;2023-04-07T09:55:20;11.80;;;8.80;;
21503;SDS011;10913;51.992;9.228;2023-04-07T09:57:50;11.80;;;10.30;;
21503;SDS011;10913;51.992;9.228;2023-04-07T10:00:16;11.82;;;10.20;;
21503;SDS011;10913;51.992;9.228;2023-04-07T10:02:42;11.70;;;10.38;;
21503;SDS011;10913;51.992;9.228;2023-04-07T10:05:08;11.65;;;9.25;;
21503;SDS011;10913;51.992;9.228;2023-04-07T10:07:34;11.30;;;10.20;;
21503;SDS011;10913;51.992;9.228;2023-04-07T10:10:01;11.13;;;10.02;;
21503;SDS011;10913;51.992;9.228;2023-04-07T10:12:28;11.73;;;10.23;;
21503;SDS011;10913;51.992;9.228;2023-04-07T10:14:56;10.98;;;9.88;;
21503;SDS011;10913;51.992;9.228;2023-04-07T10:17:22;10.65;;;9.52;;
21503;SDS011;10913;51.992;9.228;2023-04-07T10:19:48;11.02;;;9.93;;
21503;SDS011;10913;51.992;9.228;2023-04-07T10:22:15;11.30;;;10.10;;
21503;SDS011;10913;51.992;9.228;2023-04-07T10:27:48;11.80;;;9.95;;
21503;SDS011;10913;51.992;9.228;2023-04-07T10:30:27;11.40;;;9.75;;
21503;SDS011;10913;51.992;9.228;2023-04-07T10:32:54;11.02;;;9.30;;
21503;SDS011;10913;51.992;9.228;2023-04-07T10:35:21;11.93;;;9.82;;
21503;SDS011;10913;51.992;9.228;2023-04-07T10:38:32;12.55;;;10.43;;
21503;SDS011;10913;51.992;9.228;2023-04-07T10:40:32;11.05;;;10.02;;
21503;SDS011;10913;51.992;9.228;2023-04-07T10:42:58;11.07;;;9.90;;
21503;SDS011;10913;51.992;9.228;2023-04-07T10:48:12;11.82;;;10.48;;
21503;SDS011;10913;51.992;9.228;2023-04-07T10:50:39;10.20;;;9.20;;
21503;SDS011;10913;51.992;9.228;2023-04-07T10:53:08;14.00;;;10.60;;
21503;SDS011;10913;51.992;9.228;2023-04-07T10:55:38;12.52;;;10.90;;
21503;SDS011;10913;51.992;9.228;2023-04-07T11:01:15;12.68;;;10.45;;
21503;SDS011;10913;51.992;9.228;2023-04-07T11:03:31;13.50;;;9.90;;
21503;SDS011;10913;51.992;9.228;2023-04-07T11:06:04;13.00;;;10.57;;
21503;SDS011;10913;51.992;9.228;2023-04-07T11:10:58;12.32;;;9.90;;
21503;SDS011;10913;51.992;9.228;2023-04-07T11:13:23;12.63;;;9.95;;
21503;SDS011;10913;51.992;9.228;2023-04-07T11:15:50;12.90;;;10.20;;
21503;SDS011;10913;51.992;9.228;2023-04-07T11:18:18;14.48;;;11.07;;
21503;SDS011;10913;51.992;9.228;2023-04-07T11:20:52;12.63;;;10.95;;
21503;SDS011;10913;51.992;9.228;2023-04-07T11:23:20;13.60;;;11.40;;
21503;SDS011;10913;51.992;9.228;2023-04-07T11:25:51;14.07;;;10.65;;
21503;SDS011;10913;51.992;9.228;2023-04-07T11:28:18;12.15;;;9.02;;
21503;SDS011;10913;51.992;9.228;2023-04-07T11:30:50;10.88;;;9.50;;
21503;SDS011;10913;51.992;9.228;2023-04-07T11:33:21;11.60;;;9.90;;
21503;SDS011;10913;51.992;9.228;2023-04-07T11:35:52;13.68;;;10.73;;
21503;SDS011;10913;51.992;9.228;2023-04-07T11:38:20;14.27;;;11.20;;
21503;SDS011;10913;51.992;9.228;2023-04-07T11:40:47;11.88;;;10.15;;
21503;SDS011;10913;51.992;9.228;2023-04-07T11:43:16;13.80;;;10.65;;
21503;SDS011;10913;51.992;9.228;2023-04-07T11:46:07;14.00;;;10.23;;
21503;SDS011;10913;51.992;9.228;2023-04-07T11:48:32;13.90;;;9.90;;
21503;SDS011;10913;51.992;9.228;2023-04-07T11:50:59;14.02;;;10.10;;
21503;SDS011;10913;51.992;9.228;2023-04-07T11:53:32;13.52;;;10.18;;
21503;SDS011;10913;51.992;9.228;2023-04-07T11:58:34;14.18;;;10.18;;
21503;SDS011;10913;51.992;9.228;2023-04-07T12:01:01;13.00;;;9.88;;
21503;SDS011;10913;51.992;9.228;2023-04-07T12:03:31;15.48;;;10.38;;
21503;SDS011;10913;51.992;9.228;2023-04-07T12:06:01;13.25;;;9.93;;
21503;SDS011;10913;51.992;9.228;2023-04-07T12:08:39;14.50;;;10.93;;
21503;SDS011;10913;51.992;9.228;2023-04-07T12:11:06;13.80;;;10.15;;
21503;SDS011;10913;51.992;9.228;2023-04-07T12:13:32;13.45;;;10.98;;
21503;SDS011;10913;51.992;9.228;2023-04-07T12:15:58;15.07;;;10.80;;
21503;SDS011;10913;51.992;9.228;2023-04-07T12:18:24;14.60;;;10.95;;
21503;SDS011;10913;51.992;9.228;2023-04-07T12:20:51;12.75;;;10.00;;
21503;SDS011;10913;51.992;9.228;2023-04-07T12:23:16;11.68;;;9.93;;
21503;SDS011;10913;51.992;9.228;2023-04-07T12:25:42;13.38;;;11.20;;
21503;SDS011;10913;51.992;9.228;2023-04-07T12:28:07;12.98;;;10.45;;
21503;SDS011;10913;51.992;9.228;2023-04-07T12:30:32;14.35;;;11.43;;
21503;SDS011;10913;51.992;9.228;2023-04-07T12:32:58;12.73;;;10.55;;
21503;SDS011;10913;51.992;9.228;2023-04-07T12:35:23;12.25;;;9.02;;
21503;SDS011;10913;51.992;9.228;2023-04-07T12:37:49;12.00;;;10.32;;
21503;SDS011;10913;51.992;9.228;2023-04-07T12:40:16;12.38;;;9.45;;
21503;SDS011;10913;51.992;9.228;2023-04-07T12:42:42;12.75;;;10.27;;
21503;SDS011;10913;51.992;9.228;2023-04-07T12:45:07;10.60;;;9.32;;
21503;SDS011;10913;51.992;9.228;2023-04-07T12:47:33;11.23;;;9.20;;
21503;SDS011;10913;51.992;9.228;2023-04-07T12:49:58;10.45;;;8.48;;
21503;SDS011;10913;51.992;9.228;2023-04-07T12:52:23;11.35;;;8.82;;
21503;SDS011;10913;51.992;9.228;2023-04-07T12:54:49;8.80;;;7.63;;
21503;SDS011;10913;51.992;9.228;2023-04-07T12:57:15;10.15;;;9.10;;
21503;SDS011;10913;51.992;9.228;2023-04-07T12:59:40;10.05;;;8.77;;
21503;SDS011;10913;51.992;9.228;2023-04-07T13:02:06;8.23;;;7.43;;
21503;SDS011;10913;51.992;9.228;2023-04-07T13:04:32;12.30;;;10.23;;
21503;SDS011;10913;51.992;9.228;2023-04-07T13:06:58;14.38;;;11.05;;
21503;SDS011;10913;51.992;9.228;2023-04-07T13:09:26;13.98;;;10.98;;
21503;SDS011;10913;51.992;9.228;2023-04-07T13:11:52;11.50;;;9.43;;
21503;SDS011;10913;51.992;9.228;2023-04-07T13:14:17;10.55;;;9.05;;
21503;SDS011;10913;51.992;9.228;2023-04-07T13:16:42;10.10;;;8.40;;
21503;SDS011;10913;51.992;9.228;2023-04-07T13:19:08;10.32;;;8.32;;
21503;SDS011;10913;51.992;9.228;2023-04-07T13:21:34;11.20;;;9.40;;
21503;SDS011;10913;51.992;9.228;2023-04-07T13:23:59;11.10;;;8.85;;
21503;SDS011;10913;51.992;9.228;2023-04-07T13:26:25;10.60;;;9.10;;
21503;SDS011;10913;51.992;9.228;2023-04-07T13:28:52;10.88;;;9.18;;
21503;SDS011;10913;51.992;9.228;2023-04-07T13:31:17;11.55;;;9.68;;
21503;SDS011;10913;51.992;9.228;2023-04-07T13:33:45;9.40;;;8.45;;
21503;SDS011;10913;51.992;9.228;2023-04-07T13:36:11;13.38;;;9.00;;
21503;SDS011;10913;51.992;9.228;2023-04-07T13:38:36;15.50;;;9.75;;
21503;SDS011;10913;51.992;9.228;2023-04-07T13:41:02;13.00;;;11.60;;
21503;SDS011;10913;51.992;9.228;2023-04-07T13:43:28;10.93;;;9.60;;
21503;SDS011;10913;51.992;9.228;2023-04-07T13:45:53;11.98;;;10.32;;
21503;SDS011;10913;51.992;9.228;2023-04-07T13:48:20;11.18;;;9.52;;
21503;SDS011;10913;51.992;9.228;2023-04-07T13:50:46;13.00;;;10.57;;
21503;SDS011;10913;51.992;9.228;2023-04-07T13:53:11;12.10;;;10.15;;
21503;SDS011;10913;51.992;9.228;2023-04-07T13:55:37;11.63;;;9.27;;
21503;SDS011;10913;51.992;9.228;2023-04-07T13:58:02;15.25;;;10.02;;
21503;SDS011;10913;51.992;9.228;2023-04-07T14:00:28;12.43;;;9.27;;
21503;SDS011;10913;51.992;9.228;2023-04-07T14:02:54;12.55;;;9.68;;
21503;SDS011;10913;51.992;9.228;2023-04-07T14:05:23;12.35;;;8.77;;
21503;SDS011;10913;51.992;9.228;2023-04-07T14:07:48;15.82;;;9.60;;
21503;SDS011;10913;51.992;9.228;2023-04-07T14:10:14;16.02;;;12.00;;
21503;SDS011;10913;51.992;9.228;2023-04-07T14:12:40;12.43;;;10.20;;
21503;SDS011;10913;51.992;9.228;2023-04-07T14:15:06;11.10;;;9.75;;
21503;SDS011;10913;51.992;9.228;2023-04-07T14:17:32;15.43;;;12.73;;
21503;SDS011;10913;51.992;9.228;2023-04-07T14:19:57;10.50;;;9.40;;
21503;SDS011;10913;51.992;9.228;2023-04-07T14:22:22;11.50;;;10.25;;
21503;SDS011;10913;51.992;9.228;2023-04-07T14:24:48;11.57;;;9.07;;
21503;SDS011;10913;51.992;9.228;2023-04-07T14:27:13;13.38;;;10.82;;
21503;SDS011;10913;51.992;9.228;2023-04-07T14:29:44;11.70;;;10.15;;
21503;SDS011;10913;51.992;9.228;2023-04-07T14:32:10;12.13;;;9.82;;
21503;SDS011;10913;51.992;9.228;2023-04-07T14:34:35;11.85;;;9.05;;
21503;SDS011;10913;51.992;9.228;2023-04-07T14:37:01;11.05;;;9.45;;
21503;SDS011;10913;51.992;9.228;2023-04-07T14:39:27;11.68;;;9.90;;
21503;SDS011;10913;51.992;9.228;2023-04-07T14:41:53;10.88;;;9.57;;
21503;SDS011;10913;51.992;9.228;2023-04-07T14:44:18;13.32;;;9.57;;
21503;SDS011;10913;51.992;9.228;2023-04-07T14:46:44;13.73;;;10.23;;
21503;SDS011;10913;51.992;9.228;2023-04-07T14:49:09;13.25;;;10.35;;
21503;SDS011;10913;51.992;9.228;2023-04-07T14:51:35;17.10;;;15.27;;
21503;SDS011;10913;51.992;9.228;2023-04-07T14:54:00;50.97;;;45.85;;
21503;SDS011;10913;51.992;9.228;2023-04-07T14:56:26;393.38;;;300.70;;